^^
Saratoga-Weather Station Historical Data
Daily Summary for August 4, 2020 Units:  Both    English   Metric
Daily Weekly Monthly Yearly Custom
  High: Low: Average:
Temperature: 77.4 °F /  25.2 °C 55.2 °F /  12.9 °C 65.1 °F /  18.4 °C
Dew Point: 56.7 °F /  13.7 °C 50.4 °F /  10.2 °C 53.1 °F /  11.7 °C
Humidity: 92% 39% 68%
Wind Speed: 8.9mph /  14.3km/h - 1.9mph /  3.1km/h
Wind Gust: 10mph /  16.1km/h - -
Wind- - WSW
Pressure: 30 in /  1016.3 hPa 29.9 in /  1012.5 hPa -
Precipitation: 0 in /  0.0 mm    
Historical Graphs
 
 
Tabular Data for August 4, 2020
Time Temperature Dew Point Pressure Wind Wind Speed Wind Gust Humidity Rainfall Rate (Hourly) solar
00:02 57.4 °F /  14.1 °C 54.5 °F /  12.5 °C 29.9in /  1012.5hPa WSW 6.9mph /  11.1km/h 7mph /  11.3km/h 90% 0in /  0.0mm 0 W/m2
00:07 57.4 °F /  14.1 °C 54.5 °F /  12.5 °C 29.9in /  1012.5hPa West 6mph /  9.7km/h 8mph /  12.9km/h 90% 0in /  0.0mm 0 W/m2
00:12 57.4 °F /  14.1 °C 54.5 °F /  12.5 °C 29.9in /  1012.5hPa West 4mph /  6.4km/h 6mph /  9.7km/h 90% 0in /  0.0mm 0 W/m2
00:17 57.2 °F /  14 °C 54.3 °F /  12.4 °C 29.9in /  1012.5hPa West 4mph /  6.4km/h 7mph /  11.3km/h 90% 0in /  0.0mm 0 W/m2
00:22 57.2 °F /  14 °C 54.3 °F /  12.4 °C 29.9in /  1012.5hPa WSW 2.9mph /  4.7km/h 5mph /  8km/h 90% 0in /  0.0mm 0 W/m2
00:27 57.4 °F /  14.1 °C 54.5 °F /  12.5 °C 29.9in /  1012.5hPa SW 2.9mph /  4.7km/h 6mph /  9.7km/h 90% 0in /  0.0mm 0 W/m2
00:32 57.4 °F /  14.1 °C 54.5 °F /  12.5 °C 29.9in /  1012.5hPa West 2.9mph /  4.7km/h 4mph /  6.4km/h 90% 0in /  0.0mm 0 W/m2
00:37 57.4 °F /  14.1 °C 54.5 °F /  12.5 °C 29.9in /  1012.5hPa SW 2.9mph /  4.7km/h 4mph /  6.4km/h 90% 0in /  0.0mm 0 W/m2
00:42 57.6 °F /  14.2 °C 54.7 °F /  12.6 °C 29.9in /  1012.5hPa WSW 4mph /  6.4km/h 4mph /  6.4km/h 90% 0in /  0.0mm 0 W/m2
00:47 57.6 °F /  14.2 °C 54.3 °F /  12.4 °C 29.9in /  1012.5hPa West 4mph /  6.4km/h 4mph /  6.4km/h 89% 0in /  0.0mm 0 W/m2
00:52 57.6 °F /  14.2 °C 54.3 °F /  12.4 °C 29.9in /  1012.5hPa WNW 0.9mph /  1.4km/h 3mph /  4.8km/h 89% 0in /  0.0mm 0 W/m2
00:57 57.6 °F /  14.2 °C 54.3 °F /  12.4 °C 29.9in /  1012.5hPa WSW 2mph /  3.2km/h 4mph /  6.4km/h 89% 0in /  0.0mm 0 W/m2
01:02 57.7 °F /  14.3 °C 54.5 °F /  12.5 °C 29.9in /  1012.5hPa WSW 0.9mph /  1.4km/h 1mph /  1.6km/h 89% 0in /  0.0mm 0 W/m2
01:07 57.6 °F /  14.2 °C 54.7 °F /  12.6 °C 29.9in /  1012.5hPa Calm     90% 0in /  0.0mm 0 W/m2
01:12 57.2 °F /  14 °C 54.3 °F /  12.4 °C 29.9in /  1012.5hPa WSW 0.9mph /  1.4km/h 2mph /  3.2km/h 90% 0in /  0.0mm 0 W/m2
01:17 56.8 °F /  13.8 °C 54.3 °F /  12.4 °C 29.9in /  1012.5hPa Calm   1mph /  1.6km/h 91% 0in /  0.0mm 0 W/m2
01:22 56.7 °F /  13.7 °C 54.1 °F /  12.3 °C 29.9in /  1012.9hPa Calm     91% 0in /  0.0mm 0 W/m2
01:27 56.5 °F /  13.6 °C 54 °F /  12.2 °C 29.9in /  1012.5hPa WSW 0.9mph /  1.4km/h 2mph /  3.2km/h 91% 0in /  0.0mm 0 W/m2
01:32 56.3 °F /  13.5 °C 54 °F /  12.2 °C 29.9in /  1012.5hPa SW 2mph /  3.2km/h 4mph /  6.4km/h 92% 0in /  0.0mm 0 W/m2
01:37 56.5 °F /  13.6 °C 54.1 °F /  12.3 °C 29.9in /  1012.5hPa WSW 4mph /  6.4km/h 4mph /  6.4km/h 92% 0in /  0.0mm 0 W/m2
01:42 56.7 °F /  13.7 °C 54.3 °F /  12.4 °C 29.9in /  1012.5hPa West 2.9mph /  4.7km/h 6mph /  9.7km/h 92% 0in /  0.0mm 0 W/m2
01:47 56.8 °F /  13.8 °C 54.3 °F /  12.4 °C 29.9in /  1012.5hPa West 2.9mph /  4.7km/h 4mph /  6.4km/h 91% 0in /  0.0mm 0 W/m2
01:52 57 °F /  13.9 °C 54.1 °F /  12.3 °C 29.9in /  1012.9hPa West 2mph /  3.2km/h 4mph /  6.4km/h 90% 0in /  0.0mm 0 W/m2
01:57 57.2 °F /  14 °C 54.3 °F /  12.4 °C 29.9in /  1012.5hPa WNW 2mph /  3.2km/h 4mph /  6.4km/h 90% 0in /  0.0mm 0 W/m2
02:02 57.4 °F /  14.1 °C 54.5 °F /  12.5 °C 29.9in /  1012.5hPa West 2.9mph /  4.7km/h 4mph /  6.4km/h 90% 0in /  0.0mm 0 W/m2
02:07 57.4 °F /  14.1 °C 54.1 °F /  12.3 °C 29.9in /  1012.9hPa WNW 2mph /  3.2km/h 3mph /  4.8km/h 89% 0in /  0.0mm 0 W/m2
02:12 57.4 °F /  14.1 °C 54.1 °F /  12.3 °C 29.9in /  1012.5hPa WSW 2mph /  3.2km/h 6mph /  9.7km/h 89% 0in /  0.0mm 0 W/m2
02:17 57.6 °F /  14.2 °C 54.3 °F /  12.4 °C 29.9in /  1012.5hPa WNW 4mph /  6.4km/h 6mph /  9.7km/h 89% 0in /  0.0mm 0 W/m2
02:22 57.6 °F /  14.2 °C 54 °F /  12.2 °C 29.9in /  1012.5hPa WSW 0.9mph /  1.4km/h 3mph /  4.8km/h 88% 0in /  0.0mm 0 W/m2
02:27 57.6 °F /  14.2 °C 54 °F /  12.2 °C 29.9in /  1012.5hPa WSW 0.9mph /  1.4km/h 3mph /  4.8km/h 88% 0in /  0.0mm 0 W/m2
02:32 57.6 °F /  14.2 °C 54 °F /  12.2 °C 29.9in /  1012.5hPa West 2mph /  3.2km/h 3mph /  4.8km/h 88% 0in /  0.0mm 0 W/m2
02:37 57.6 °F /  14.2 °C 54 °F /  12.2 °C 29.9in /  1012.9hPa West 2mph /  3.2km/h 4mph /  6.4km/h 88% 0in /  0.0mm 0 W/m2
02:42 57.6 °F /  14.2 °C 54 °F /  12.2 °C 29.9in /  1012.5hPa WSW 2mph /  3.2km/h 3mph /  4.8km/h 88% 0in /  0.0mm 0 W/m2
02:47 57.6 °F /  14.2 °C 53.8 °F /  12.1 °C 29.9in /  1012.9hPa West 4mph /  6.4km/h 4mph /  6.4km/h 87% 0in /  0.0mm 0 W/m2
02:52 57.6 °F /  14.2 °C 53.8 °F /  12.1 °C 29.9in /  1012.9hPa West 2mph /  3.2km/h 4mph /  6.4km/h 87% 0in /  0.0mm 0 W/m2
02:57 57.6 °F /  14.2 °C 53.8 °F /  12.1 °C 29.9in /  1012.9hPa West 2mph /  3.2km/h 4mph /  6.4km/h 87% 0in /  0.0mm 0 W/m2
03:02 57.6 °F /  14.2 °C 53.8 °F /  12.1 °C 29.9in /  1012.9hPa West 2.9mph /  4.7km/h 6mph /  9.7km/h 87% 0in /  0.0mm 0 W/m2
03:07 57.4 °F /  14.1 °C 53.6 °F /  12 °C 29.9in /  1012.9hPa WNW 2mph /  3.2km/h 3mph /  4.8km/h 87% 0in /  0.0mm 0 W/m2
03:12 57.2 °F /  14 °C 53.4 °F /  11.9 °C 29.9in /  1012.9hPa West 2.9mph /  4.7km/h 6mph /  9.7km/h 87% 0in /  0.0mm 0 W/m2
03:17 57 °F /  13.9 °C 53.4 °F /  11.9 °C 29.9in /  1012.9hPa West 2mph /  3.2km/h 4mph /  6.4km/h 88% 0in /  0.0mm 0 W/m2
03:22 57 °F /  13.9 °C 53.4 °F /  11.9 °C 29.9in /  1012.9hPa West 0.9mph /  1.4km/h 3mph /  4.8km/h 88% 0in /  0.0mm 0 W/m2
03:27 56.8 °F /  13.8 °C 53.2 °F /  11.8 °C 29.9in /  1012.9hPa West 2mph /  3.2km/h 4mph /  6.4km/h 88% 0in /  0.0mm 0 W/m2
03:32 56.8 °F /  13.8 °C 53.1 °F /  11.7 °C 29.9in /  1012.9hPa West 2mph /  3.2km/h 3mph /  4.8km/h 87% 0in /  0.0mm 0 W/m2
03:37 56.8 °F /  13.8 °C 53.1 °F /  11.7 °C 29.9in /  1012.9hPa WSW 2.9mph /  4.7km/h 4mph /  6.4km/h 87% 0in /  0.0mm 0 W/m2
03:42 56.7 °F /  13.7 °C 53.1 °F /  11.7 °C 29.9in /  1012.9hPa WSW 0.9mph /  1.4km/h 2mph /  3.2km/h 88% 0in /  0.0mm 0 W/m2
03:47 56.7 °F /  13.7 °C 53.1 °F /  11.7 °C 29.9in /  1012.9hPa Calm   2mph /  3.2km/h 88% 0in /  0.0mm 0 W/m2
03:52 56.3 °F /  13.5 °C 52.9 °F /  11.6 °C 29.9in /  1012.9hPa WSW 0.9mph /  1.4km/h 2mph /  3.2km/h 88% 0in /  0.0mm 0 W/m2
03:57 55.9 °F /  13.3 °C 52.7 °F /  11.5 °C 29.9in /  1012.9hPa Calm     89% 0in /  0.0mm 0 W/m2
04:02 55.8 °F /  13.2 °C 52.5 °F /  11.4 °C 29.9in /  1012.9hPa WSW 0.9mph /  1.4km/h 2mph /  3.2km/h 89% 0in /  0.0mm 0 W/m2
04:07 55.4 °F /  13 °C 52.5 °F /  11.4 °C 29.9in /  1012.9hPa WSW 0.9mph /  1.4km/h 3mph /  4.8km/h 90% 0in /  0.0mm 0 W/m2
04:12 55.2 °F /  12.9 °C 52.3 °F /  11.3 °C 29.9in /  1012.9hPa WSW 2mph /  3.2km/h 4mph /  6.4km/h 90% 0in /  0.0mm 0 W/m2
04:17 55.2 °F /  12.9 °C 52.3 °F /  11.3 °C 29.9in /  1012.9hPa WSW 2mph /  3.2km/h 4mph /  6.4km/h 90% 0in /  0.0mm 0 W/m2
04:22 55.4 °F /  13 °C 52.5 °F /  11.4 °C 29.9in /  1012.9hPa SW 2mph /  3.2km/h 6mph /  9.7km/h 90% 0in /  0.0mm 0 W/m2
04:27 55.6 °F /  13.1 °C 52.7 °F /  11.5 °C 29.9in /  1012.9hPa West 0.9mph /  1.4km/h 3mph /  4.8km/h 90% 0in /  0.0mm 0 W/m2
04:32 55.6 °F /  13.1 °C 52.3 °F /  11.3 °C 29.9in /  1012.9hPa SW 0.9mph /  1.4km/h 2mph /  3.2km/h 89% 0in /  0.0mm 0 W/m2
04:37 55.6 °F /  13.1 °C 52.3 °F /  11.3 °C 29.9in /  1012.9hPa WSW 0.9mph /  1.4km/h 2mph /  3.2km/h 89% 0in /  0.0mm 0 W/m2
04:42 55.6 °F /  13.1 °C 52.3 °F /  11.3 °C 29.9in /  1012.9hPa WSW 2mph /  3.2km/h 4mph /  6.4km/h 89% 0in /  0.0mm 0 W/m2
04:47 55.6 °F /  13.1 °C 52.3 °F /  11.3 °C 29.9in /  1012.9hPa WSW 0.9mph /  1.4km/h 2mph /  3.2km/h 89% 0in /  0.0mm 0 W/m2
04:53 55.6 °F /  13.1 °C 52.3 °F /  11.3 °C 29.9in /  1013.2hPa Calm   1mph /  1.6km/h 89% 0in /  0.0mm 0 W/m2
04:58 55.4 °F /  13 °C 52.2 °F /  11.2 °C 29.9in /  1013.2hPa SW 2mph /  3.2km/h 2mph /  3.2km/h 89% 0in /  0.0mm 0 W/m2
05:03 55.2 °F /  12.9 °C 52 °F /  11.1 °C 29.9in /  1013.2hPa WSW 4mph /  6.4km/h 7mph /  11.3km/h 89% 0in /  0.0mm 0 W/m2
05:08 55.4 °F /  13 °C 52 °F /  11.1 °C 29.9in /  1013.2hPa SW 2mph /  3.2km/h 6mph /  9.7km/h 88% 0in /  0.0mm 0 W/m2
05:13 55.6 °F /  13.1 °C 52.2 °F /  11.2 °C 29.9in /  1013.2hPa WSW 2.9mph /  4.7km/h 4mph /  6.4km/h 88% 0in /  0.0mm 0 W/m2
05:18 55.6 °F /  13.1 °C 52.2 °F /  11.2 °C 29.9in /  1013.2hPa West 2mph /  3.2km/h 3mph /  4.8km/h 88% 0in /  0.0mm 0 W/m2
05:23 55.4 °F /  13 °C 52 °F /  11.1 °C 29.9in /  1013.2hPa WSW 4mph /  6.4km/h 4mph /  6.4km/h 88% 0in /  0.0mm 0 W/m2
05:28 55.6 °F /  13.1 °C 51.8 °F /  11 °C 29.9in /  1013.5hPa West 2.9mph /  4.7km/h 8mph /  12.9km/h 87% 0in /  0.0mm 0 W/m2
05:33 55.6 °F /  13.1 °C 51.8 °F /  11 °C 29.9in /  1013.2hPa West 4mph /  6.4km/h 6mph /  9.7km/h 87% 0in /  0.0mm 0 W/m2
05:38 55.6 °F /  13.1 °C 51.8 °F /  11 °C 29.9in /  1013.5hPa WSW 4.9mph /  7.9km/h 8mph /  12.9km/h 87% 0in /  0.0mm 0 W/m2
05:43 55.8 °F /  13.2 °C 52 °F /  11.1 °C 29.9in /  1013.5hPa West 2.9mph /  4.7km/h 4mph /  6.4km/h 87% 0in /  0.0mm 0 W/m2
05:48 55.6 °F /  13.1 °C 51.8 °F /  11 °C 29.9in /  1013.5hPa WSW 2.9mph /  4.7km/h 8mph /  12.9km/h 87% 0in /  0.0mm 0 W/m2
05:53 55.6 °F /  13.1 °C 51.8 °F /  11 °C 29.9in /  1013.5hPa WNW 2mph /  3.2km/h 9mph /  14.5km/h 87% 0in /  0.0mm 0 W/m2
05:58 55.8 °F /  13.2 °C 52 °F /  11.1 °C 29.9in /  1013.5hPa NW 2.9mph /  4.7km/h 6mph /  9.7km/h 87% 0in /  0.0mm 0 W/m2
06:03 55.8 °F /  13.2 °C 51.6 °F /  10.9 °C 29.9in /  1013.5hPa SW 2mph /  3.2km/h 5mph /  8km/h 86% 0in /  0.0mm 0 W/m2
06:08 55.9 °F /  13.3 °C 51.8 °F /  11 °C 29.9in /  1013.5hPa WSW 4.9mph /  7.9km/h 5mph /  8km/h 86% 0in /  0.0mm 0 W/m2
06:13 55.9 °F /  13.3 °C 51.8 °F /  11 °C 29.9in /  1013.5hPa WSW 2.9mph /  4.7km/h 6mph /  9.7km/h 86% 0in /  0.0mm 0 W/m2
06:18 55.9 °F /  13.3 °C 51.8 °F /  11 °C 29.9in /  1013.5hPa West 2mph /  3.2km/h 4mph /  6.4km/h 86% 0in /  0.0mm 5 W/m2
06:23 55.8 °F /  13.2 °C 51.6 °F /  10.9 °C 29.9in /  1013.5hPa WSW 2.9mph /  4.7km/h 3mph /  4.8km/h 86% 0in /  0.0mm 7 W/m2
06:28 55.8 °F /  13.2 °C 51.6 °F /  10.9 °C 29.9in /  1013.9hPa West 2.9mph /  4.7km/h 4mph /  6.4km/h 86% 0in /  0.0mm 9 W/m2
06:33 55.9 °F /  13.3 °C 51.8 °F /  11 °C 29.9in /  1013.9hPa WSW 0.9mph /  1.4km/h 2mph /  3.2km/h 86% 0in /  0.0mm 14 W/m2
06:38 55.8 °F /  13.2 °C 51.6 °F /  10.9 °C 29.9in /  1013.9hPa SW 2mph /  3.2km/h 4mph /  6.4km/h 86% 0in /  0.0mm 18 W/m2
06:43 55.9 °F /  13.3 °C 52.2 °F /  11.2 °C 29.9in /  1013.9hPa Calm   4mph /  6.4km/h 87% 0in /  0.0mm 21 W/m2
06:48 55.8 °F /  13.2 °C 52 °F /  11.1 °C 29.9in /  1013.9hPa West 2mph /  3.2km/h 4mph /  6.4km/h 87% 0in /  0.0mm 25 W/m2
06:53 55.9 °F /  13.3 °C 51.8 °F /  11 °C 29.9in /  1013.9hPa WSW 0.9mph /  1.4km/h 4mph /  6.4km/h 86% 0in /  0.0mm 28 W/m2
06:58 56.1 °F /  13.4 °C 52 °F /  11.1 °C 30in /  1014.2hPa West 2mph /  3.2km/h 3mph /  4.8km/h 86% 0in /  0.0mm 32 W/m2
07:03 56.3 °F /  13.5 °C 52.2 °F /  11.2 °C 30in /  1014.2hPa WNW 2mph /  3.2km/h 4mph /  6.4km/h 86% 0in /  0.0mm 35 W/m2
07:08 56.5 °F /  13.6 °C 52.3 °F /  11.3 °C 30in /  1014.2hPa West 2mph /  3.2km/h 4mph /  6.4km/h 86% 0in /  0.0mm 44 W/m2
07:13 56.7 °F /  13.7 °C 52.5 °F /  11.4 °C 30in /  1014.6hPa West 0.9mph /  1.4km/h 2mph /  3.2km/h 86% 0in /  0.0mm 53 W/m2
07:18 56.7 °F /  13.7 °C 52.5 °F /  11.4 °C 30in /  1014.6hPa NW 2.9mph /  4.7km/h 5mph /  8km/h 86% 0in /  0.0mm 51 W/m2
07:23 57 °F /  13.9 °C 52.5 °F /  11.4 °C 30in /  1014.6hPa West 0.9mph /  1.4km/h 2mph /  3.2km/h 85% 0in /  0.0mm 56 W/m2
07:28 57 °F /  13.9 °C 52.9 °F /  11.6 °C 30in /  1014.6hPa WNW 2.9mph /  4.7km/h 5mph /  8km/h 86% 0in /  0.0mm 54 W/m2
07:33 57.2 °F /  14 °C 52.7 °F /  11.5 °C 30in /  1014.6hPa NW 0.9mph /  1.4km/h 2mph /  3.2km/h 85% 0in /  0.0mm 51 W/m2
07:38 57.2 °F /  14 °C 52.7 °F /  11.5 °C 30in /  1014.6hPa West 0.9mph /  1.4km/h 5mph /  8km/h 85% 0in /  0.0mm 49 W/m2
07:43 57.2 °F /  14 °C 52.7 °F /  11.5 °C 30in /  1014.6hPa WSW 2.9mph /  4.7km/h 4mph /  6.4km/h 85% 0in /  0.0mm 53 W/m2
07:48 57 °F /  13.9 °C 52.5 °F /  11.4 °C 30in /  1014.6hPa WNW 0.9mph /  1.4km/h 5mph /  8km/h 85% 0in /  0.0mm 56 W/m2
07:53 57.2 °F /  14 °C 52.7 °F /  11.5 °C 30in /  1014.6hPa WNW 0.9mph /  1.4km/h 3mph /  4.8km/h 85% 0in /  0.0mm 62 W/m2
07:59 57.2 °F /  14 °C 53.1 °F /  11.7 °C 30in /  1014.6hPa WNW 2mph /  3.2km/h 2mph /  3.2km/h 86% 0in /  0.0mm 67 W/m2
08:04 57.4 °F /  14.1 °C 53.2 °F /  11.8 °C 30in /  1014.6hPa WNW 2mph /  3.2km/h 2mph /  3.2km/h 86% 0in /  0.0mm 104 W/m2
08:09 57.6 °F /  14.2 °C 53.1 °F /  11.7 °C 30in /  1014.9hPa NW 0.9mph /  1.4km/h 2mph /  3.2km/h 85% 0in /  0.0mm 109 W/m2
08:14 57.9 °F /  14.4 °C 53.4 °F /  11.9 °C 30in /  1014.9hPa WNW 0.9mph /  1.4km/h 2mph /  3.2km/h 85% 0in /  0.0mm 79 W/m2
08:19 58.3 °F /  14.6 °C 53.4 °F /  11.9 °C 30in /  1014.9hPa Calm   1mph /  1.6km/h 84% 0in /  0.0mm 77 W/m2
08:24 58.6 °F /  14.8 °C 53.8 °F /  12.1 °C 30in /  1015.2hPa WNW 0.9mph /  1.4km/h 1mph /  1.6km/h 84% 0in /  0.0mm 76 W/m2
08:29 59.2 °F /  15.1 °C 54 °F /  12.2 °C 30in /  1015.2hPa WNW 0.9mph /  1.4km/h 3mph /  4.8km/h 83% 0in /  0.0mm 90 W/m2
08:34 59.5 °F /  15.3 °C 54 °F /  12.2 °C 30in /  1015.2hPa NW 2.9mph /  4.7km/h 4mph /  6.4km/h 82% 0in /  0.0mm 95 W/m2
08:39 60.1 °F /  15.6 °C 54.5 °F /  12.5 °C 30in /  1015.2hPa North 2mph /  3.2km/h 2mph /  3.2km/h 82% 0in /  0.0mm 105 W/m2
08:44 60.6 °F /  15.9 °C 54.7 °F /  12.6 °C 30in /  1015.2hPa WNW 2mph /  3.2km/h 3mph /  4.8km/h 81% 0in /  0.0mm 84 W/m2
08:49 61.3 °F /  16.3 °C 54.9 °F /  12.7 °C 30in /  1015.2hPa NW 2.9mph /  4.7km/h 3mph /  4.8km/h 79% 0in /  0.0mm 90 W/m2
08:54 61.3 °F /  16.3 °C 54.5 °F /  12.5 °C 30in /  1015.2hPa East 2mph /  3.2km/h 4mph /  6.4km/h 78% 0in /  0.0mm 88 W/m2
08:59 61.3 °F /  16.3 °C 54.1 °F /  12.3 °C 30in /  1015.2hPa WNW 4mph /  6.4km/h 6mph /  9.7km/h 77% 0in /  0.0mm 88 W/m2
09:04 61.3 °F /  16.3 °C 54.5 °F /  12.5 °C 30in /  1015.6hPa NNW 2.9mph /  4.7km/h 3mph /  4.8km/h 78% 0in /  0.0mm 188 W/m2
09:09 61.5 °F /  16.4 °C 54.7 °F /  12.6 °C 30in /  1015.6hPa West 2.9mph /  4.7km/h 8mph /  12.9km/h 78% 0in /  0.0mm 313 W/m2
09:14 61.7 °F /  16.5 °C 54.9 °F /  12.7 °C 30in /  1015.6hPa NW 2mph /  3.2km/h 3mph /  4.8km/h 78% 0in /  0.0mm 348 W/m2
09:19 61.9 °F /  16.6 °C 54.9 °F /  12.7 °C 30in /  1015.6hPa West 2mph /  3.2km/h 8mph /  12.9km/h 78% 0in /  0.0mm 359 W/m2
09:24 62.1 °F /  16.7 °C 54.7 °F /  12.6 °C 30in /  1015.6hPa East 0.9mph /  1.4km/h 3mph /  4.8km/h 77% 0in /  0.0mm 381 W/m2
09:29 62.2 °F /  16.8 °C 54.5 °F /  12.5 °C 30in /  1015.6hPa East 2.9mph /  4.7km/h 7mph /  11.3km/h 76% 0in /  0.0mm 385 W/m2
09:34 62.6 °F /  17 °C 54.9 °F /  12.7 °C 30in /  1015.6hPa NNW 2.9mph /  4.7km/h 3mph /  4.8km/h 76% 0in /  0.0mm 392 W/m2
09:39 62.8 °F /  17.1 °C 54.7 °F /  12.6 °C 30in /  1015.6hPa North 2.9mph /  4.7km/h 3mph /  4.8km/h 75% 0in /  0.0mm 415 W/m2
09:45 63 °F /  17.2 °C 54.9 °F /  12.7 °C 30in /  1015.6hPa North 2mph /  3.2km/h 8mph /  12.9km/h 75% 0in /  0.0mm 425 W/m2
09:50 63.1 °F /  17.3 °C 55.4 °F /  13 °C 30in /  1015.6hPa NW 2.9mph /  4.7km/h 5mph /  8km/h 76% 0in /  0.0mm 380 W/m2
09:55 63.5 °F /  17.5 °C 55.4 °F /  13 °C 30in /  1015.6hPa NW 0.9mph /  1.4km/h 3mph /  4.8km/h 75% 0in /  0.0mm 104 W/m2
10:00 63.7 °F /  17.6 °C 55.6 °F /  13.1 °C 30in /  1015.6hPa WNW 2mph /  3.2km/h 7mph /  11.3km/h 75% 0in /  0.0mm 155 W/m2
10:05 63.7 °F /  17.6 °C 55.2 °F /  12.9 °C 30in /  1015.6hPa WNW 2.9mph /  4.7km/h 7mph /  11.3km/h 74% 0in /  0.0mm 483 W/m2
10:10 63.7 °F /  17.6 °C 55.2 °F /  12.9 °C 30in /  1015.6hPa WNW 4mph /  6.4km/h 8mph /  12.9km/h 74% 0in /  0.0mm 508 W/m2
10:15 63.9 °F /  17.7 °C 55.4 °F /  13 °C 30in /  1015.6hPa Calm   2mph /  3.2km/h 74% 0in /  0.0mm 513 W/m2
10:20 64.2 °F /  17.9 °C 55.8 °F /  13.2 °C 30in /  1015.6hPa ENE 8mph /  12.9km/h 8mph /  12.9km/h 74% 0in /  0.0mm 527 W/m2
10:25 64.9 °F /  18.3 °C 55.8 °F /  13.2 °C 30in /  1015.6hPa North 2.9mph /  4.7km/h 6mph /  9.7km/h 72% 0in /  0.0mm 541 W/m2
10:30 64.9 °F /  18.3 °C 55.8 °F /  13.2 °C 30in /  1015.6hPa West 2.9mph /  4.7km/h 4mph /  6.4km/h 72% 0in /  0.0mm 545 W/m2
10:35 64.8 °F /  18.2 °C 55.6 °F /  13.1 °C 30in /  1015.6hPa WNW 2.9mph /  4.7km/h 6mph /  9.7km/h 72% 0in /  0.0mm 547 W/m2
10:40 64.8 °F /  18.2 °C 55.6 °F /  13.1 °C 30in /  1015.6hPa North 2mph /  3.2km/h 3mph /  4.8km/h 72% 0in /  0.0mm 571 W/m2
10:45 64.9 °F /  18.3 °C 55.4 °F /  13 °C 30in /  1015.6hPa NW 0.9mph /  1.4km/h 7mph /  11.3km/h 71% 0in /  0.0mm 589 W/m2
10:50 64.9 °F /  18.3 °C 55.8 °F /  13.2 °C 30in /  1015.9hPa NE 4mph /  6.4km/h 5mph /  8km/h 72% 0in /  0.0mm 594 W/m2
10:55 65.5 °F /  18.6 °C 56.3 °F /  13.5 °C 30in /  1015.9hPa SSE 0.9mph /  1.4km/h 5mph /  8km/h 72% 0in /  0.0mm 613 W/m2
11:00 65.8 °F /  18.8 °C 56.1 °F /  13.4 °C 30in /  1015.9hPa SE 0.9mph /  1.4km/h 3mph /  4.8km/h 71% 0in /  0.0mm 643 W/m2
11:05 66 °F /  18.9 °C 55.9 °F /  13.3 °C 30in /  1015.9hPa NW 0.9mph /  1.4km/h 2mph /  3.2km/h 70% 0in /  0.0mm 668 W/m2
11:10 66 °F /  18.9 °C 55.9 °F /  13.3 °C 30in /  1015.9hPa North 4mph /  6.4km/h 4mph /  6.4km/h 70% 0in /  0.0mm 661 W/m2
11:15 66 °F /  18.9 °C 55.9 °F /  13.3 °C 30in /  1015.9hPa WNW 2mph /  3.2km/h 4mph /  6.4km/h 70% 0in /  0.0mm 661 W/m2
11:20 66.2 °F /  19 °C 56.1 °F /  13.4 °C 30in /  1015.6hPa WNW 0.9mph /  1.4km/h 3mph /  4.8km/h 70% 0in /  0.0mm 694 W/m2
11:25 66.6 °F /  19.2 °C 56.1 °F /  13.4 °C 30in /  1015.9hPa NW 2.9mph /  4.7km/h 8mph /  12.9km/h 69% 0in /  0.0mm 710 W/m2
11:30 66.7 °F /  19.3 °C 56.7 °F /  13.7 °C 30in /  1015.6hPa East 2.9mph /  4.7km/h 3mph /  4.8km/h 70% 0in /  0.0mm 715 W/m2
11:35 67.5 °F /  19.7 °C 56.5 °F /  13.6 °C 30in /  1015.6hPa WNW 4mph /  6.4km/h 7mph /  11.3km/h 68% 0in /  0.0mm 729 W/m2
11:40 67.6 °F /  19.8 °C 56.3 °F /  13.5 °C 30in /  1015.9hPa North 2mph /  3.2km/h 3mph /  4.8km/h 67% 0in /  0.0mm 686 W/m2
11:45 67.8 °F /  19.9 °C 56.5 °F /  13.6 °C 30in /  1015.6hPa SW 0.9mph /  1.4km/h 3mph /  4.8km/h 67% 0in /  0.0mm 761 W/m2
11:50 67.8 °F /  19.9 °C 56.5 °F /  13.6 °C 30in /  1015.9hPa WNW 4mph /  6.4km/h 4mph /  6.4km/h 67% 0in /  0.0mm 269 W/m2
11:55 67.5 °F /  19.7 °C 55.8 °F /  13.2 °C 30in /  1015.6hPa WNW 0.9mph /  1.4km/h 3mph /  4.8km/h 66% 0in /  0.0mm 176 W/m2
12:00 67.5 °F /  19.7 °C 55.8 °F /  13.2 °C 30in /  1015.9hPa West 4mph /  6.4km/h 4mph /  6.4km/h 66% 0in /  0.0mm 800 W/m2
12:05 67.6 °F /  19.8 °C 55.4 °F /  13 °C 30in /  1015.6hPa West 2mph /  3.2km/h 6mph /  9.7km/h 65% 0in /  0.0mm 809 W/m2
12:10 68 °F /  20 °C 55.4 °F /  13 °C 30in /  1015.6hPa NW 0.9mph /  1.4km/h 3mph /  4.8km/h 64% 0in /  0.0mm 221 W/m2
12:15 68 °F /  20 °C 54.9 °F /  12.7 °C 30in /  1015.9hPa WSW 2mph /  3.2km/h 4mph /  6.4km/h 63% 0in /  0.0mm 413 W/m2
12:20 67.8 °F /  19.9 °C 54.7 °F /  12.6 °C 30in /  1015.9hPa NE 2mph /  3.2km/h 2mph /  3.2km/h 63% 0in /  0.0mm 190 W/m2
12:26 68.7 °F /  20.4 °C 56.1 °F /  13.4 °C 30in /  1015.9hPa East 2mph /  3.2km/h 3mph /  4.8km/h 64% 0in /  0.0mm 888 W/m2
12:31 69.4 °F /  20.8 °C 55.9 °F /  13.3 °C 30in /  1015.9hPa ESE 0.9mph /  1.4km/h 2mph /  3.2km/h 62% 0in /  0.0mm 905 W/m2
12:36 70.3 °F /  21.3 °C 55.8 °F /  13.2 °C 30in /  1015.6hPa NW 2mph /  3.2km/h 5mph /  8km/h 60% 0in /  0.0mm 932 W/m2
12:41 70.5 °F /  21.4 °C 56.5 °F /  13.6 °C 30in /  1015.6hPa Calm   1mph /  1.6km/h 61% 0in /  0.0mm 849 W/m2
12:46 70.7 °F /  21.5 °C 55.6 °F /  13.1 °C 30in /  1015.9hPa WNW 4mph /  6.4km/h 7mph /  11.3km/h 59% 0in /  0.0mm 299 W/m2
12:51 69.6 °F /  20.9 °C 55 °F /  12.8 °C 30in /  1015.9hPa West 2mph /  3.2km/h 4mph /  6.4km/h 60% 0in /  0.0mm 183 W/m2
12:56 69.1 °F /  20.6 °C 55 °F /  12.8 °C 30in /  1015.9hPa WNW 0.9mph /  1.4km/h 6mph /  9.7km/h 61% 0in /  0.0mm 186 W/m2
13:01 68.7 °F /  20.4 °C 54.7 °F /  12.6 °C 30in /  1015.9hPa NW 0.9mph /  1.4km/h 1mph /  1.6km/h 61% 0in /  0.0mm 251 W/m2
13:06 68.5 °F /  20.3 °C 55 °F /  12.8 °C 30in /  1015.9hPa Calm   4mph /  6.4km/h 62% 0in /  0.0mm 176 W/m2
13:11 69.1 °F /  20.6 °C 55 °F /  12.8 °C 30in /  1015.9hPa NNW 0.9mph /  1.4km/h 1mph /  1.6km/h 61% 0in /  0.0mm 287 W/m2
13:16 69.4 °F /  20.8 °C 54 °F /  12.2 °C 30in /  1015.9hPa North 0.9mph /  1.4km/h 3mph /  4.8km/h 58% 0in /  0.0mm 909 W/m2
13:21 70.3 °F /  21.3 °C 54.9 °F /  12.7 °C 30in /  1015.6hPa ESE 4mph /  6.4km/h 5mph /  8km/h 58% 0in /  0.0mm 916 W/m2
13:26 71.2 °F /  21.8 °C 55.2 °F /  12.9 °C 30in /  1015.6hPa North 0.9mph /  1.4km/h 3mph /  4.8km/h 57% 0in /  0.0mm 953 W/m2
13:31 71.8 °F /  22.1 °C 54.7 °F /  12.6 °C 30in /  1015.6hPa NNE 4.9mph /  7.9km/h 6mph /  9.7km/h 55% 0in /  0.0mm 366 W/m2
13:36 72 °F /  22.2 °C 54.9 °F /  12.7 °C 30in /  1015.6hPa West 2.9mph /  4.7km/h 6mph /  9.7km/h 55% 0in /  0.0mm 932 W/m2
13:42 72 °F /  22.2 °C 54.9 °F /  12.7 °C 30in /  1015.6hPa WNW 2.9mph /  4.7km/h 5mph /  8km/h 55% 0in /  0.0mm 267 W/m2
13:47 71.8 °F /  22.1 °C 55.2 °F /  12.9 °C 30in /  1015.6hPa WSW 2mph /  3.2km/h 6mph /  9.7km/h 56% 0in /  0.0mm 253 W/m2
13:52 71.4 °F /  21.9 °C 55.4 °F /  13 °C 30in /  1015.6hPa NW 0.9mph /  1.4km/h 2mph /  3.2km/h 57% 0in /  0.0mm 267 W/m2
13:57 71.8 °F /  22.1 °C 55.2 °F /  12.9 °C 30in /  1015.6hPa NW 2mph /  3.2km/h 4mph /  6.4km/h 56% 0in /  0.0mm 974 W/m2
14:02 72.9 °F /  22.7 °C 54.7 °F /  12.6 °C 30in /  1015.6hPa ENE 0.9mph /  1.4km/h 3mph /  4.8km/h 53% 0in /  0.0mm 1021 W/m2
14:07 73.4 °F /  23 °C 54.7 °F /  12.6 °C 30in /  1015.6hPa North 2mph /  3.2km/h 3mph /  4.8km/h 52% 0in /  0.0mm 675 W/m2
14:12 73.2 °F /  22.9 °C 54.5 °F /  12.5 °C 30in /  1015.6hPa WNW 4.9mph /  7.9km/h 6mph /  9.7km/h 52% 0in /  0.0mm 675 W/m2
14:17 72.7 °F /  22.6 °C 51.3 °F /  10.7 °C 30in /  1015.6hPa WNW 2mph /  3.2km/h 6mph /  9.7km/h 47% 0in /  0.0mm 232 W/m2
14:22 72 °F /  22.2 °C 51.8 °F /  11 °C 30in /  1015.6hPa NW 0.9mph /  1.4km/h 4mph /  6.4km/h 49% 0in /  0.0mm 914 W/m2
14:27 72.5 °F /  22.5 °C 53.4 °F /  11.9 °C 30in /  1015.6hPa WSW 2.9mph /  4.7km/h 4mph /  6.4km/h 51% 0in /  0.0mm 905 W/m2
14:32 72.9 °F /  22.7 °C 53.1 °F /  11.7 °C 30in /  1015.6hPa WSW 6.9mph /  11.1km/h 7mph /  11.3km/h 50% 0in /  0.0mm 879 W/m2
14:37 72.9 °F /  22.7 °C 53.1 °F /  11.7 °C 30in /  1015.6hPa SW 2mph /  3.2km/h 4mph /  6.4km/h 50% 0in /  0.0mm 889 W/m2
14:42 72.9 °F /  22.7 °C 53.1 °F /  11.7 °C 30in /  1015.6hPa Calm   2mph /  3.2km/h 50% 0in /  0.0mm 881 W/m2
14:47 73.6 °F /  23.1 °C 53.8 °F /  12.1 °C 30in /  1015.6hPa NE 2.9mph /  4.7km/h 4mph /  6.4km/h 50% 0in /  0.0mm 193 W/m2
14:52 73.6 °F /  23.1 °C 53.2 °F /  11.8 °C 30in /  1015.6hPa WSW 0.9mph /  1.4km/h 3mph /  4.8km/h 49% 0in /  0.0mm 148 W/m2
14:57 73.2 °F /  22.9 °C 52.9 °F /  11.6 °C 30in /  1015.6hPa NW 2mph /  3.2km/h 3mph /  4.8km/h 49% 0in /  0.0mm 146 W/m2
15:02 73 °F /  22.8 °C 52.7 °F /  11.5 °C 30in /  1015.6hPa West 2.9mph /  4.7km/h 4mph /  6.4km/h 49% 0in /  0.0mm 160 W/m2
15:07 72.5 °F /  22.5 °C 52.9 °F /  11.6 °C 30in /  1015.6hPa NW 2mph /  3.2km/h 2mph /  3.2km/h 50% 0in /  0.0mm 188 W/m2
15:12 72.1 °F /  22.3 °C 53.1 °F /  11.7 °C 30in /  1015.6hPa West 0.9mph /  1.4km/h 4mph /  6.4km/h 51% 0in /  0.0mm 251 W/m2
15:17 72.5 °F /  22.5 °C 51.6 °F /  10.9 °C 30in /  1015.6hPa WNW 0.9mph /  1.4km/h 3mph /  4.8km/h 48% 0in /  0.0mm 863 W/m2
15:22 73.6 °F /  23.1 °C 52.2 °F /  11.2 °C 30in /  1015.6hPa WSW 2mph /  3.2km/h 4mph /  6.4km/h 47% 0in /  0.0mm 844 W/m2
15:27 74.1 °F /  23.4 °C 53.2 °F /  11.8 °C 30in /  1015.6hPa NE 2mph /  3.2km/h 2mph /  3.2km/h 48% 0in /  0.0mm 828 W/m2
15:32 74.7 °F /  23.7 °C 53.1 °F /  11.7 °C 30in /  1015.6hPa WNW 2mph /  3.2km/h 2mph /  3.2km/h 47% 0in /  0.0mm 826 W/m2
15:37 75 °F /  23.9 °C 52.2 °F /  11.2 °C 30in /  1015.6hPa WNW 4mph /  6.4km/h 7mph /  11.3km/h 45% 0in /  0.0mm 846 W/m2
15:42 75 °F /  23.9 °C 52.9 °F /  11.6 °C 30in /  1015.6hPa NW 4.9mph /  7.9km/h 6mph /  9.7km/h 46% 0in /  0.0mm 786 W/m2
15:47 74.8 °F /  23.8 °C 52.7 °F /  11.5 °C 30in /  1015.6hPa West 4mph /  6.4km/h 6mph /  9.7km/h 46% 0in /  0.0mm 782 W/m2
15:52 74.8 °F /  23.8 °C 52.7 °F /  11.5 °C 30in /  1015.2hPa NW 2mph /  3.2km/h 6mph /  9.7km/h 46% 0in /  0.0mm 766 W/m2
15:57 75 °F /  23.9 °C 51.6 °F /  10.9 °C 30in /  1015.2hPa West 0.9mph /  1.4km/h 6mph /  9.7km/h 44% 0in /  0.0mm 756 W/m2
16:02 75.4 °F /  24.1 °C 53.2 °F /  11.8 °C 30in /  1015.6hPa West 2mph /  3.2km/h 7mph /  11.3km/h 46% 0in /  0.0mm 770 W/m2
16:07 75.7 °F /  24.3 °C 51.6 °F /  10.9 °C 30in /  1015.2hPa WNW 2mph /  3.2km/h 7mph /  11.3km/h 43% 0in /  0.0mm 744 W/m2
16:12 75.6 °F /  24.2 °C 52.7 °F /  11.5 °C 30in /  1015.2hPa West 2mph /  3.2km/h 4mph /  6.4km/h 45% 0in /  0.0mm 752 W/m2
16:17 75.6 °F /  24.2 °C 52.2 °F /  11.2 °C 30in /  1015.2hPa West 0.9mph /  1.4km/h 7mph /  11.3km/h 44% 0in /  0.0mm 721 W/m2
16:22 75.7 °F /  24.3 °C 51.1 °F /  10.6 °C 30in /  1015.2hPa NW 2.9mph /  4.7km/h 8mph /  12.9km/h 42% 0in /  0.0mm 731 W/m2
16:27 75.9 °F /  24.4 °C 51.3 °F /  10.7 °C 30in /  1015.2hPa WNW 4mph /  6.4km/h 5mph /  8km/h 42% 0in /  0.0mm 738 W/m2
16:32 75.9 °F /  24.4 °C 52.5 °F /  11.4 °C 30in /  1015.2hPa WSW 4.9mph /  7.9km/h 7mph /  11.3km/h 44% 0in /  0.0mm 742 W/m2
16:37 75.7 °F /  24.3 °C 51.6 °F /  10.9 °C 30in /  1015.2hPa WSW 4mph /  6.4km/h 7mph /  11.3km/h 43% 0in /  0.0mm 717 W/m2
16:42 75.7 °F /  24.3 °C 51.6 °F /  10.9 °C 30in /  1015.2hPa WNW 4.9mph /  7.9km/h 5mph /  8km/h 43% 0in /  0.0mm 715 W/m2
16:47 76.3 °F /  24.6 °C 52.2 °F /  11.2 °C 30in /  1015.2hPa West 4mph /  6.4km/h 5mph /  8km/h 43% 0in /  0.0mm 684 W/m2
16:52 75.7 °F /  24.3 °C 52.3 °F /  11.3 °C 30in /  1015.2hPa WNW 8.1mph /  13km/h 10mph /  16.1km/h 44% 0in /  0.0mm 680 W/m2
16:57 75.7 °F /  24.3 °C 52.3 °F /  11.3 °C 30in /  1015.2hPa West 8.9mph /  14.3km/h 9mph /  14.5km/h 44% 0in /  0.0mm 680 W/m2
17:02 75.6 °F /  24.2 °C 52.2 °F /  11.2 °C 30in /  1015.2hPa WNW 4.9mph /  7.9km/h 9mph /  14.5km/h 44% 0in /  0.0mm 656 W/m2
17:07 74.8 °F /  23.8 °C 52.2 °F /  11.2 °C 30in /  1015.2hPa NW 2.9mph /  4.7km/h 3mph /  4.8km/h 45% 0in /  0.0mm 113 W/m2
17:12 74.7 °F /  23.7 °C 51.3 °F /  10.7 °C 30in /  1015.2hPa WSW 2mph /  3.2km/h 3mph /  4.8km/h 44% 0in /  0.0mm 621 W/m2
17:17 75.2 °F /  24 °C 51.8 °F /  11 °C 30in /  1015.2hPa WNW 2.9mph /  4.7km/h 8mph /  12.9km/h 44% 0in /  0.0mm 589 W/m2
17:22 75.7 °F /  24.3 °C 51.1 °F /  10.6 °C 30in /  1015.2hPa WNW 2mph /  3.2km/h 4mph /  6.4km/h 42% 0in /  0.0mm 582 W/m2
17:27 76.1 °F /  24.5 °C 51.3 °F /  10.7 °C 30in /  1015.2hPa NW 2mph /  3.2km/h 8mph /  12.9km/h 42% 0in /  0.0mm 570 W/m2
17:32 76.5 °F /  24.7 °C 51.1 °F /  10.6 °C 30in /  1015.2hPa WSW 0.9mph /  1.4km/h 5mph /  8km/h 41% 0in /  0.0mm 561 W/m2
17:37 76.8 °F /  24.9 °C 52 °F /  11.1 °C 30in /  1015.2hPa West 2mph /  3.2km/h 3mph /  4.8km/h 42% 0in /  0.0mm 559 W/m2
17:42 77.4 °F /  25.2 °C 52.5 °F /  11.4 °C 30in /  1015.2hPa West 2.9mph /  4.7km/h 8mph /  12.9km/h 42% 0in /  0.0mm 533 W/m2
17:47 77.2 °F /  25.1 °C 51.6 °F /  10.9 °C 30in /  1014.9hPa WNW 6mph /  9.7km/h 6mph /  9.7km/h 41% 0in /  0.0mm 503 W/m2
17:52 77.2 °F /  25.1 °C 51.1 °F /  10.6 °C 30in /  1015.2hPa North 2.9mph /  4.7km/h 4mph /  6.4km/h 40% 0in /  0.0mm 522 W/m2
17:57 77 °F /  25 °C 50.9 °F /  10.5 °C 30in /  1014.9hPa WNW 2mph /  3.2km/h 3mph /  4.8km/h 40% 0in /  0.0mm 504 W/m2
18:02 76.8 °F /  24.9 °C 51.3 °F /  10.7 °C 30in /  1014.9hPa NNW 2mph /  3.2km/h 3mph /  4.8km/h 41% 0in /  0.0mm 480 W/m2
18:07 77 °F /  25 °C 50.9 °F /  10.5 °C 30in /  1014.9hPa West 2mph /  3.2km/h 6mph /  9.7km/h 40% 0in /  0.0mm 469 W/m2
18:12 77.2 °F /  25.1 °C 51.1 °F /  10.6 °C 30in /  1014.9hPa NE 2mph /  3.2km/h 3mph /  4.8km/h 40% 0in /  0.0mm 454 W/m2
18:17 77.4 °F /  25.2 °C 51.1 °F /  10.6 °C 30in /  1014.9hPa West 2.9mph /  4.7km/h 4mph /  6.4km/h 40% 0in /  0.0mm 424 W/m2
18:22 77.4 °F /  25.2 °C 51.1 °F /  10.6 °C 30in /  1014.9hPa WNW 4mph /  6.4km/h 4mph /  6.4km/h 40% 0in /  0.0mm 417 W/m2
18:27 77.2 °F /  25.1 °C 50.4 °F /  10.2 °C 30in /  1015.2hPa WNW 2.9mph /  4.7km/h 6mph /  9.7km/h 39% 0in /  0.0mm 399 W/m2
18:32 76.8 °F /  24.9 °C 51.3 °F /  10.7 °C 30in /  1015.2hPa Calm   4mph /  6.4km/h 41% 0in /  0.0mm 403 W/m2
18:37 77.2 °F /  25.1 °C 51.1 °F /  10.6 °C 30in /  1015.2hPa NNW 2mph /  3.2km/h 9mph /  14.5km/h 40% 0in /  0.0mm 404 W/m2
18:42 76.8 °F /  24.9 °C 50.7 °F /  10.4 °C 30in /  1015.2hPa WNW 2.9mph /  4.7km/h 4mph /  6.4km/h 40% 0in /  0.0mm 378 W/m2
18:48 76.5 °F /  24.7 °C 50.4 °F /  10.2 °C 30in /  1015.2hPa West 6mph /  9.7km/h 7mph /  11.3km/h 40% 0in /  0.0mm 179 W/m2
18:53 75.7 °F /  24.3 °C 51.1 °F /  10.6 °C 30in /  1015.2hPa West 2mph /  3.2km/h 3mph /  4.8km/h 42% 0in /  0.0mm 62 W/m2
18:58 75 °F /  23.9 °C 50.4 °F /  10.2 °C 30in /  1015.2hPa NW 2mph /  3.2km/h 7mph /  11.3km/h 42% 0in /  0.0mm 60 W/m2
19:03 74.8 °F /  23.8 °C 51.4 °F /  10.8 °C 30in /  1015.2hPa West 2mph /  3.2km/h 3mph /  4.8km/h 44% 0in /  0.0mm 258 W/m2
19:08 75 °F /  23.9 °C 50.4 °F /  10.2 °C 30in /  1015.2hPa West 2mph /  3.2km/h 4mph /  6.4km/h 42% 0in /  0.0mm 232 W/m2
19:13 75.6 °F /  24.2 °C 50.9 °F /  10.5 °C 30in /  1015.2hPa NW 0.9mph /  1.4km/h 3mph /  4.8km/h 42% 0in /  0.0mm 221 W/m2
19:18 75.7 °F /  24.3 °C 51.1 °F /  10.6 °C 30in /  1015.2hPa West 2mph /  3.2km/h 4mph /  6.4km/h 42% 0in /  0.0mm 123 W/m2
19:23 75.7 °F /  24.3 °C 51.1 °F /  10.6 °C 30in /  1015.2hPa WNW 0.9mph /  1.4km/h 2mph /  3.2km/h 42% 0in /  0.0mm 125 W/m2
19:28 75.9 °F /  24.4 °C 50.5 °F /  10.3 °C 30in /  1015.2hPa West 0.9mph /  1.4km/h 1mph /  1.6km/h 41% 0in /  0.0mm 167 W/m2
19:33 76.1 °F /  24.5 °C 50.7 °F /  10.4 °C 30in /  1015.2hPa West 0.9mph /  1.4km/h 2mph /  3.2km/h 41% 0in /  0.0mm 148 W/m2
19:38 76.3 °F /  24.6 °C 50.9 °F /  10.5 °C 30in /  1015.2hPa West 0.9mph /  1.4km/h 4mph /  6.4km/h 41% 0in /  0.0mm 167 W/m2
19:43 76.3 °F /  24.6 °C 52.2 °F /  11.2 °C 30in /  1015.2hPa Calm   1mph /  1.6km/h 43% 0in /  0.0mm 165 W/m2
19:48 76.3 °F /  24.6 °C 54.5 °F /  12.5 °C 30in /  1015.2hPa Calm   3mph /  4.8km/h 47% 0in /  0.0mm 171 W/m2
19:53 76.3 °F /  24.6 °C 55.2 °F /  12.9 °C 30in /  1015.2hPa Calm     48% 0in /  0.0mm 149 W/m2
19:58 76.3 °F /  24.6 °C 54 °F /  12.2 °C 30in /  1015.2hPa West 0.9mph /  1.4km/h 2mph /  3.2km/h 46% 0in /  0.0mm 125 W/m2
20:03 76.1 °F /  24.5 °C 52.5 °F /  11.4 °C 30in /  1015.2hPa West 0.9mph /  1.4km/h 3mph /  4.8km/h 44% 0in /  0.0mm 107 W/m2
20:08 75.6 °F /  24.2 °C 52.2 °F /  11.2 °C 30in /  1015.2hPa WSW 2mph /  3.2km/h 3mph /  4.8km/h 44% 0in /  0.0mm 90 W/m2
20:13 75.2 °F /  24 °C 52.3 °F /  11.3 °C 30in /  1015.2hPa WSW 0.9mph /  1.4km/h 1mph /  1.6km/h 45% 0in /  0.0mm 84 W/m2
20:18 75 °F /  23.9 °C 52.2 °F /  11.2 °C 30in /  1015.6hPa WSW 0.9mph /  1.4km/h 1mph /  1.6km/h 45% 0in /  0.0mm 62 W/m2
20:23 74.7 °F /  23.7 °C 52 °F /  11.1 °C 30in /  1015.2hPa WSW 0.9mph /  1.4km/h 1mph /  1.6km/h 45% 0in /  0.0mm 63 W/m2
20:28 74.1 °F /  23.4 °C 52 °F /  11.1 °C 30in /  1015.2hPa West 2mph /  3.2km/h 3mph /  4.8km/h 46% 0in /  0.0mm 30 W/m2
20:33 73.4 °F /  23 °C 51.4 °F /  10.8 °C 30in /  1015.6hPa West 0.9mph /  1.4km/h 3mph /  4.8km/h 46% 0in /  0.0mm 25 W/m2
20:38 72.5 °F /  22.5 °C 51.6 °F /  10.9 °C 30in /  1015.6hPa West 0.9mph /  1.4km/h 2mph /  3.2km/h 48% 0in /  0.0mm 21 W/m2
20:44 72 °F /  22.2 °C 51.8 °F /  11 °C 30in /  1015.6hPa West 0.9mph /  1.4km/h 2mph /  3.2km/h 49% 0in /  0.0mm 18 W/m2
20:49 71.2 °F /  21.8 °C 51.1 °F /  10.6 °C 30in /  1015.6hPa Calm   2mph /  3.2km/h 49% 0in /  0.0mm 14 W/m2
20:54 70.9 °F /  21.6 °C 51.3 °F /  10.7 °C 30in /  1015.6hPa Calm   1mph /  1.6km/h 50% 0in /  0.0mm 12 W/m2
20:59 70.3 °F /  21.3 °C 51.4 °F /  10.8 °C 30in /  1015.6hPa WSW 0.9mph /  1.4km/h 2mph /  3.2km/h 51% 0in /  0.0mm 12 W/m2
21:04 70 °F /  21.1 °C 52 °F /  11.1 °C 30in /  1015.6hPa Calm   1mph /  1.6km/h 53% 0in /  0.0mm 9 W/m2
21:09 69.4 °F /  20.8 °C 52.2 °F /  11.2 °C 30in /  1015.6hPa Calm     54% 0in /  0.0mm 5 W/m2
21:14 68.9 °F /  20.5 °C 52 °F /  11.1 °C 30in /  1015.6hPa Calm     55% 0in /  0.0mm 0 W/m2
21:19 68.4 °F /  20.2 °C 52 °F /  11.1 °C 30in /  1015.6hPa Calm   1mph /  1.6km/h 56% 0in /  0.0mm 0 W/m2
21:24 67.8 °F /  19.9 °C 52 °F /  11.1 °C 30in /  1015.6hPa Calm     57% 0in /  0.0mm 0 W/m2
21:29 67.3 °F /  19.6 °C 52 °F /  11.1 °C 30in /  1015.6hPa Calm     58% 0in /  0.0mm 0 W/m2
21:34 66.7 °F /  19.3 °C 52 °F /  11.1 °C 30in /  1015.6hPa Calm     59% 0in /  0.0mm 0 W/m2
21:39 66.4 °F /  19.1 °C 51.1 °F /  10.6 °C 30in /  1015.6hPa Calm     58% 0in /  0.0mm 0 W/m2
21:44 65.8 °F /  18.8 °C 51.1 °F /  10.6 °C 30in /  1015.9hPa Calm     59% 0in /  0.0mm 0 W/m2
21:49 65.7 °F /  18.7 °C 51.4 °F /  10.8 °C 30in /  1015.6hPa Calm     60% 0in /  0.0mm 0 W/m2
21:54 65.1 °F /  18.4 °C 51.8 °F /  11 °C 30in /  1015.9hPa Calm     62% 0in /  0.0mm 0 W/m2
21:59 64.8 °F /  18.2 °C 51.4 °F /  10.8 °C 30in /  1015.9hPa Calm     62% 0in /  0.0mm 0 W/m2
22:04 64.6 °F /  18.1 °C 51.3 °F /  10.7 °C 30in /  1015.9hPa Calm     62% 0in /  0.0mm 0 W/m2
22:09 64 °F /  17.8 °C 51.3 °F /  10.7 °C 30in /  1015.9hPa Calm   1mph /  1.6km/h 63% 0in /  0.0mm 0 W/m2
22:14 63.9 °F /  17.7 °C 51.4 °F /  10.8 °C 30in /  1015.9hPa Calm     64% 0in /  0.0mm 0 W/m2
22:19 63.3 °F /  17.4 °C 50.5 °F /  10.3 °C 30in /  1015.9hPa Calm     63% 0in /  0.0mm 0 W/m2
22:24 63.1 °F /  17.3 °C 50.7 °F /  10.4 °C 30in /  1016.3hPa Calm     64% 0in /  0.0mm 0 W/m2
22:29 62.8 °F /  17.1 °C 50.4 °F /  10.2 °C 30in /  1016.3hPa Calm   1mph /  1.6km/h 64% 0in /  0.0mm 0 W/m2
22:34 62.8 °F /  17.1 °C 50.9 °F /  10.5 °C 30in /  1016.3hPa Calm     65% 0in /  0.0mm 0 W/m2
22:39 62.4 °F /  16.9 °C 50.5 °F /  10.3 °C 30in /  1016.3hPa Calm   1mph /  1.6km/h 65% 0in /  0.0mm 0 W/m2
22:44 62.2 °F /  16.8 °C 50.7 °F /  10.4 °C 30in /  1015.9hPa Calm     66% 0in /  0.0mm 0 W/m2
22:49 62.1 °F /  16.7 °C 50.9 °F /  10.5 °C 30in /  1016.3hPa Calm     67% 0in /  0.0mm 0 W/m2
22:54 61.9 °F /  16.6 °C 51.3 °F /  10.7 °C 30in /  1016.3hPa Calm     68% 0in /  0.0mm 0 W/m2
22:59 61.7 °F /  16.5 °C 51.4 °F /  10.8 °C 30in /  1016.3hPa Calm     69% 0in /  0.0mm 0 W/m2
23:04 61.3 °F /  16.3 °C 51.4 °F /  10.8 °C 30in /  1016.3hPa Calm     70% 0in /  0.0mm 0 W/m2
23:09 61.2 °F /  16.2 °C 50.5 °F /  10.3 °C 30in /  1016.3hPa Calm     68% 0in /  0.0mm 0 W/m2
23:14 61 °F /  16.1 °C 50.4 °F /  10.2 °C 30in /  1016.3hPa Calm     68% 0in /  0.0mm 0 W/m2
23:19 61 °F /  16.1 °C 51.1 °F /  10.6 °C 30in /  1016.3hPa Calm     70% 0in /  0.0mm 0 W/m2
23:24 60.6 °F /  15.9 °C 50.7 °F /  10.4 °C 30in /  1016.3hPa Calm     70% 0in /  0.0mm 0 W/m2
23:29 60.4 °F /  15.8 °C 50.5 °F /  10.3 °C 30in /  1016.3hPa Calm     70% 0in /  0.0mm 0 W/m2
23:34 60.3 °F /  15.7 °C 50.4 °F /  10.2 °C 30in /  1016.3hPa Calm     70% 0in /  0.0mm 0 W/m2
23:39 60.1 °F /  15.6 °C 50.7 °F /  10.4 °C 30in /  1016.3hPa Calm     71% 0in /  0.0mm 0 W/m2
23:44 59.7 °F /  15.4 °C 50.7 °F /  10.4 °C 30in /  1016.3hPa Calm     72% 0in /  0.0mm 0 W/m2
23:50 59.5 °F /  15.3 °C 50.5 °F /  10.3 °C 30in /  1016.3hPa Calm     72% 0in /  0.0mm 0 W/m2
23:55 59.4 °F /  15.2 °C 50.4 °F /  10.2 °C 30in /  1016.3hPa Calm     72% 0in /  0.0mm 0 W/m2
Juneau County Weather
Compliments of Weather Underground - 4 mb